createdAt,value
2023-03-18T00:00:11.471Z,70.40
2023-03-18T00:02:40.385Z,70.42
2023-03-18T00:05:08.743Z,70.02
2023-03-18T00:07:36.440Z,70.03
2023-03-18T00:10:05.045Z,70.23
2023-03-18T00:12:33.144Z,69.75
2023-03-18T00:15:01.015Z,70.19
2023-03-18T00:17:27.586Z,70.39
2023-03-18T00:19:54.719Z,70.51
2023-03-18T00:22:21.718Z,70.29
2023-03-18T00:24:49.022Z,70.25
2023-03-18T00:27:15.913Z,70.47
2023-03-18T00:29:42.833Z,70.23
2023-03-18T00:32:09.902Z,71.03
2023-03-18T00:34:36.410Z,71.03
2023-03-18T00:37:03.664Z,70.90
2023-03-18T00:39:32.952Z,71.05
2023-03-18T00:42:01.990Z,71.05
2023-03-18T00:44:28.780Z,71.28
2023-03-18T00:46:55.588Z,71.63
2023-03-18T00:49:22.044Z,71.58
2023-03-18T00:51:48.486Z,71.62
2023-03-18T00:54:18.570Z,71.95
2023-03-18T00:56:45.492Z,72.12
2023-03-18T00:59:11.960Z,72.15
2023-03-18T01:01:39.074Z,72.66
2023-03-18T01:04:07.216Z,72.55
2023-03-18T01:06:37.451Z,73.04
2023-03-18T01:09:09.055Z,73.45
2023-03-18T01:11:35.537Z,73.72
2023-03-18T01:14:02.233Z,73.27
2023-03-18T01:16:29.976Z,73.64
2023-03-18T01:18:57.310Z,74.55
2023-03-18T01:21:24.289Z,74.78
2023-03-18T01:23:50.772Z,74.51
2023-03-18T01:26:17.439Z,73.99
2023-03-18T01:28:44.161Z,74.51
2023-03-18T01:31:12.568Z,74.08
2023-03-18T01:33:40.234Z,74.86
2023-03-18T01:36:08.132Z,74.23
2023-03-18T01:38:34.666Z,74.34
2023-03-18T01:41:01.846Z,74.00
2023-03-18T01:43:34.434Z,73.50
2023-03-18T01:46:02.881Z,72.93
2023-03-18T01:48:31.629Z,72.86
2023-03-18T01:51:05.857Z,73.68
2023-03-18T01:53:39.052Z,72.53
2023-03-18T01:56:06.812Z,72.77
2023-03-18T01:58:41.917Z,72.33
2023-03-18T02:01:26.327Z,72.67
2023-03-18T02:03:54.113Z,72.23
2023-03-18T02:10:13.379Z,72.68
2023-03-18T02:12:45.569Z,72.56
2023-03-18T02:15:16.494Z,72.60
2023-03-18T02:17:49.373Z,73.44
2023-03-18T02:20:28.393Z,72.85
2023-03-18T02:23:30.500Z,72.39
2023-03-18T02:26:08.360Z,72.45
2023-03-18T02:28:37.526Z,72.44
2023-03-18T02:31:09.570Z,71.66
2023-03-18T02:33:39.178Z,71.57
2023-03-18T02:36:11.032Z,71.33
2023-03-18T02:38:42.211Z,71.36
2023-03-18T02:41:18.237Z,70.94
2023-03-18T02:43:45.486Z,70.87
2023-03-18T02:46:28.814Z,70.27
2023-03-18T02:48:56.479Z,70.68
2023-03-18T02:51:23.601Z,70.62
2023-03-18T02:53:50.799Z,70.17
2023-03-18T02:56:17.576Z,70.21
2023-03-18T02:58:44.710Z,69.72
2023-03-18T03:01:11.671Z,69.82
2023-03-18T03:03:39.006Z,69.84
2023-03-18T03:06:06.340Z,70.13
2023-03-18T03:08:32.815Z,69.77
2023-03-18T03:10:59.421Z,69.58
2023-03-18T03:13:25.934Z,69.15
2023-03-18T03:15:52.489Z,69.01
2023-03-18T03:18:19.038Z,68.79
2023-03-18T03:20:45.793Z,68.49
2023-03-18T03:23:14.482Z,68.41
2023-03-18T03:25:42.073Z,68.26
2023-03-18T03:28:09.769Z,68.25
2023-03-18T03:30:36.793Z,67.84
2023-03-18T03:33:04.313Z,67.96
2023-03-18T03:35:31.580Z,68.07
2023-03-18T03:37:58.180Z,67.53
2023-03-18T03:40:26.023Z,67.65
2023-03-18T03:42:52.776Z,68.04
2023-03-18T03:45:20.140Z,68.13
2023-03-18T03:47:47.132Z,68.34
2023-03-18T03:50:15.863Z,67.91
2023-03-18T03:52:43.642Z,68.19
2023-03-18T03:55:13.308Z,68.44
2023-03-18T03:57:41.889Z,68.23
2023-03-18T04:00:14.432Z,68.36
2023-03-18T04:02:43.475Z,68.20
2023-03-18T04:05:11.422Z,68.14
2023-03-18T04:07:38.826Z,68.97
2023-03-18T04:10:06.235Z,68.60
2023-03-18T04:12:32.642Z,68.54
2023-03-18T04:14:59.142Z,68.56
2023-03-18T04:17:25.640Z,68.94
2023-03-18T04:19:52.257Z,68.73
2023-03-18T04:22:18.773Z,69.25
2023-03-18T04:24:45.692Z,69.09
2023-03-18T04:27:12.757Z,68.69
2023-03-18T04:29:39.742Z,68.69
2023-03-18T04:32:06.230Z,68.76
2023-03-18T04:34:32.769Z,69.18
2023-03-18T04:36:59.287Z,69.13
2023-03-18T04:39:25.884Z,69.26
2023-03-18T04:41:52.377Z,69.24
2023-03-18T04:44:19.303Z,69.30
2023-03-18T04:46:46.174Z,69.21
2023-03-18T04:49:12.993Z,69.58
2023-03-18T04:51:39.978Z,69.44
2023-03-18T04:54:06.461Z,69.87
2023-03-18T04:56:34.326Z,70.16
2023-03-18T04:59:00.763Z,70.39
2023-03-18T05:01:27.184Z,70.71
2023-03-18T05:03:53.786Z,70.74
2023-03-18T05:06:23.254Z,71.12
2023-03-18T05:08:50.111Z,70.95
2023-03-18T05:11:17.644Z,70.96
2023-03-18T05:13:44.175Z,71.51
2023-03-18T05:16:10.861Z,71.80
2023-03-18T05:18:38.223Z,71.96
2023-03-18T05:21:07.351Z,71.70
2023-03-18T05:23:34.294Z,72.41
2023-03-18T05:26:00.805Z,72.70
2023-03-18T05:28:27.693Z,73.11
2023-03-18T05:30:54.189Z,73.15
2023-03-18T05:33:23.121Z,73.89
2023-03-18T05:35:49.867Z,73.51
2023-03-18T05:38:16.316Z,73.87
2023-03-18T05:40:43.499Z,74.40
2023-03-18T05:43:10.435Z,74.08
2023-03-18T05:45:40.206Z,74.72
2023-03-18T05:48:07.121Z,74.89
2023-03-18T05:50:37.126Z,74.84
2023-03-18T05:53:04.612Z,74.26
2023-03-18T05:55:32.345Z,74.98
2023-03-18T05:58:00.288Z,74.85
2023-03-18T06:00:31.669Z,74.36
2023-03-18T06:02:59.636Z,74.62
2023-03-18T06:05:26.864Z,74.89
2023-03-18T06:07:54.794Z,75.09
2023-03-18T06:10:22.770Z,75.32
2023-03-18T06:12:50.591Z,74.46
2023-03-18T06:15:18.813Z,74.54
2023-03-18T06:17:45.604Z,75.17
2023-03-18T06:20:14.215Z,74.79
2023-03-18T06:22:40.960Z,75.10
2023-03-18T06:25:08.317Z,74.99
2023-03-18T06:27:35.505Z,74.73
2023-03-18T06:30:04.616Z,75.55
2023-03-18T06:32:31.838Z,75.25
2023-03-18T06:34:58.388Z,75.69
2023-03-18T06:37:24.911Z,75.98
2023-03-18T06:39:51.459Z,76.42
2023-03-18T06:42:17.999Z,76.59
2023-03-18T06:44:50.415Z,76.62
2023-03-18T06:47:21.991Z,76.82
2023-03-18T06:49:49.873Z,76.79
2023-03-18T06:52:18.090Z,76.43
2023-03-18T06:54:45.787Z,76.24
2023-03-18T06:57:13.497Z,75.90
2023-03-18T06:59:40.761Z,75.38
2023-03-18T07:02:08.634Z,74.89
2023-03-18T07:04:35.474Z,73.85
2023-03-18T07:07:02.230Z,73.33
2023-03-18T07:09:29.100Z,72.64
2023-03-18T07:11:55.597Z,71.79
2023-03-18T07:14:22.967Z,71.55
2023-03-18T07:16:49.968Z,71.28
2023-03-18T07:19:17.833Z,71.28
2023-03-18T07:21:45.985Z,69.84
2023-03-18T07:24:12.704Z,68.78
2023-03-18T07:26:39.199Z,67.41
2023-03-18T07:29:05.960Z,67.11
2023-03-18T07:31:32.604Z,67.61
2023-03-18T07:33:59.183Z,67.72
2023-03-18T07:36:26.687Z,67.03
2023-03-18T07:38:53.295Z,65.89
2023-03-18T07:41:19.730Z,64.18
2023-03-18T07:43:46.572Z,62.57
2023-03-18T07:46:13.105Z,61.76
2023-03-18T07:48:39.614Z,61.87
2023-03-18T07:51:06.153Z,60.45
2023-03-18T07:53:33.779Z,60.15
2023-03-18T07:56:00.691Z,58.92
2023-03-18T07:58:27.180Z,59.73
2023-03-18T08:00:54.068Z,59.31
2023-03-18T08:03:20.639Z,58.58
2023-03-18T08:05:47.144Z,59.14
2023-03-18T08:08:13.858Z,59.55
2023-03-18T08:10:40.529Z,58.86
2023-03-18T08:13:07.019Z,57.58
2023-03-18T08:15:33.906Z,55.94
2023-03-18T08:18:00.827Z,55.63
2023-03-18T08:20:27.579Z,55.34
2023-03-18T08:22:54.162Z,54.71
2023-03-18T08:25:22.902Z,53.63
2023-03-18T08:27:50.848Z,52.39
2023-03-18T08:30:17.536Z,52.37
2023-03-18T08:32:44.587Z,52.18
2023-03-18T08:35:12.672Z,51.49
2023-03-18T08:37:39.167Z,52.17
2023-03-18T08:40:06.596Z,53.19
2023-03-18T08:42:33.102Z,54.28
2023-03-18T08:44:59.681Z,54.81
2023-03-18T08:47:27.416Z,55.01
2023-03-18T08:49:53.924Z,56.26
2023-03-18T08:52:20.401Z,55.66
2023-03-18T08:54:47.836Z,54.81
2023-03-18T08:57:14.308Z,54.10
2023-03-18T08:59:40.825Z,54.35
2023-03-18T09:02:08.208Z,54.57
2023-03-18T09:04:34.604Z,55.08
2023-03-18T09:07:01.491Z,54.87
2023-03-18T09:09:41.041Z,56.31
2023-03-18T09:12:11.819Z,56.02
2023-03-18T09:14:38.837Z,55.52
2023-03-18T09:17:06.322Z,54.38
2023-03-18T09:19:32.850Z,53.92
2023-03-18T09:21:59.290Z,51.58
2023-03-18T09:24:25.821Z,51.42
2023-03-18T09:26:52.577Z,51.26
2023-03-18T09:29:20.572Z,51.10
2023-03-18T09:31:47.075Z,50.48
2023-03-18T09:34:14.498Z,50.66
2023-03-18T09:36:42.357Z,50.28
2023-03-18T09:39:10.057Z,51.22
2023-03-18T09:41:45.570Z,50.19
2023-03-18T09:44:21.554Z,48.73
2023-03-18T09:47:18.621Z,47.95
2023-03-18T09:50:21.152Z,47.35
2023-03-18T09:52:53.920Z,47.57
2023-03-18T09:55:40.243Z,46.04
2023-03-18T09:58:24.573Z,45.05
2023-03-18T10:00:56.008Z,43.92
2023-03-18T10:03:34.468Z,43.55
2023-03-18T10:06:07.970Z,42.72
2023-03-18T10:11:24.079Z,43.01
2023-03-18T10:22:54.901Z,40.68
2023-03-18T10:25:27.695Z,41.29
2023-03-18T10:28:18.239Z,43.52
2023-03-18T10:31:16.815Z,42.95
2023-03-18T10:33:43.656Z,43.26
2023-03-18T10:36:31.785Z,42.45
2023-03-18T10:39:01.144Z,43.48
2023-03-18T10:41:35.855Z,42.59
2023-03-18T10:44:22.565Z,43.96
2023-03-18T10:47:08.003Z,43.71
2023-03-18T10:49:42.846Z,43.21
2023-03-18T10:52:28.454Z,43.13
2023-03-18T10:54:54.909Z,45.03
2023-03-18T10:57:22.144Z,45.09
2023-03-18T10:59:52.119Z,44.45
2023-03-18T11:02:34.897Z,46.31
2023-03-18T11:05:25.034Z,46.45
2023-03-18T11:08:07.859Z,47.38
2023-03-18T11:10:43.650Z,46.75
2023-03-18T11:13:16.510Z,48.47
2023-03-18T11:15:51.313Z,50.53
2023-03-18T11:18:23.031Z,50.63
2023-03-18T11:21:01.291Z,53.04
2023-03-18T11:23:56.244Z,52.97
2023-03-18T11:26:25.178Z,53.90
2023-03-18T11:28:57.713Z,54.12
2023-03-18T11:31:24.701Z,54.98
2023-03-18T11:33:57.704Z,55.71
2023-03-18T11:36:26.827Z,58.27
2023-03-18T11:39:04.428Z,58.89
2023-03-18T11:41:31.038Z,58.77
2023-03-18T11:44:01.802Z,59.93
2023-03-18T11:46:37.575Z,57.30
2023-03-18T11:49:04.268Z,54.78
2023-03-18T11:51:42.898Z,52.28
2023-03-18T11:54:37.560Z,51.29
2023-03-18T11:57:22.854Z,49.91
2023-03-18T12:00:07.659Z,47.66
2023-03-18T12:02:55.182Z,46.95
2023-03-18T12:05:52.380Z,47.69
2023-03-18T12:08:31.678Z,47.97
2023-03-18T12:11:06.446Z,47.33
2023-03-18T12:13:37.456Z,46.46
2023-03-18T12:16:37.276Z,45.64
2023-03-18T12:19:25.137Z,44.90
2023-03-18T12:22:00.604Z,44.97
2023-03-18T12:24:46.974Z,47.78
2023-03-18T12:27:42.784Z,46.42
2023-03-18T12:30:25.145Z,47.61
2023-03-18T12:32:51.681Z,47.35
2023-03-18T12:35:45.836Z,50.03
2023-03-18T12:38:42.168Z,51.38
2023-03-18T12:41:43.990Z,53.12
2023-03-18T12:44:43.017Z,51.17
2023-03-18T12:47:15.281Z,49.81
2023-03-18T12:49:54.229Z,51.08
2023-03-18T12:52:38.008Z,50.85
2023-03-18T12:55:33.666Z,49.08
2023-03-18T12:58:14.248Z,47.63
2023-03-18T13:00:54.775Z,45.69
2023-03-18T13:03:26.361Z,43.81
2023-03-18T13:05:57.287Z,41.33
2023-03-18T13:08:41.906Z,42.74
2023-03-18T13:11:17.356Z,44.07
2023-03-18T13:13:50.056Z,45.46
2023-03-18T13:16:19.311Z,47.21
2023-03-18T13:18:51.650Z,48.61
2023-03-18T13:21:22.965Z,49.48
2023-03-18T13:23:52.069Z,51.30
2023-03-18T13:26:44.073Z,55.51
2023-03-18T13:29:18.350Z,58.93
2023-03-18T13:32:00.518Z,59.69
2023-03-18T13:34:47.980Z,60.97
2023-03-18T13:37:26.193Z,63.65
2023-03-18T13:40:14.229Z,64.98
2023-03-18T13:42:42.298Z,65.30
2023-03-18T13:45:08.954Z,68.28
2023-03-18T13:47:40.651Z,71.18
2023-03-18T13:50:25.834Z,70.99
2023-03-18T13:52:55.810Z,71.03
2023-03-18T13:55:29.693Z,70.43
2023-03-18T13:58:09.256Z,68.38
2023-03-18T14:00:40.518Z,70.17
2023-03-18T14:03:29.883Z,72.76
2023-03-18T14:06:16.345Z,74.58
2023-03-18T14:08:42.934Z,78.22
2023-03-18T14:11:16.657Z,100.00
2023-03-18T14:13:54.515Z,87.16
2023-03-18T14:16:37.711Z,89.41
2023-03-18T14:19:24.132Z,96.28
2023-03-18T14:22:06.979Z,100.00
2023-03-18T14:24:33.730Z,87.12
2023-03-18T14:27:06.649Z,85.33
2023-03-18T14:29:45.296Z,96.09
2023-03-18T14:32:38.610Z,96.77
2023-03-18T14:35:17.205Z,88.21
2023-03-18T14:38:17.502Z,91.19
2023-03-18T14:40:51.546Z,96.75
2023-03-18T14:43:54.491Z,100.00
2023-03-18T14:46:27.124Z,100.00
2023-03-18T14:48:54.073Z,100.00
2023-03-18T14:51:22.482Z,100.00
2023-03-18T14:54:20.819Z,100.00
2023-03-18T14:56:54.181Z,100.00
2023-03-18T14:59:25.583Z,96.65
2023-03-18T15:01:53.821Z,90.79
2023-03-18T15:04:25.938Z,99.96
2023-03-18T15:06:54.335Z,96.02
2023-03-18T15:09:27.372Z,100.00
2023-03-18T15:11:54.404Z,100.00
2023-03-18T15:14:31.699Z,94.66
2023-03-18T15:17:04.559Z,89.72
2023-03-18T15:19:32.634Z,100.00
2023-03-18T15:22:06.019Z,99.25
2023-03-18T15:24:32.986Z,89.38
2023-03-18T15:27:13.519Z,85.27
2023-03-18T15:29:53.171Z,100.00
2023-03-18T15:32:28.443Z,100.00
2023-03-18T15:35:06.468Z,100.00
2023-03-18T15:37:41.966Z,91.98
2023-03-18T15:40:23.491Z,92.31
2023-03-18T15:42:50.751Z,93.30
2023-03-18T15:45:21.242Z,93.06
2023-03-18T15:47:48.672Z,100.00
2023-03-18T15:50:28.334Z,98.12
2023-03-18T15:53:20.395Z,96.41
2023-03-18T15:55:53.983Z,97.59
2023-03-18T15:58:25.386Z,100.00
2023-03-18T16:00:53.187Z,100.00
2023-03-18T16:03:25.966Z,94.85
2023-03-18T16:05:53.569Z,94.47
2023-03-18T16:08:21.062Z,95.75
2023-03-18T16:10:50.863Z,100.00
2023-03-18T16:13:21.648Z,100.00
2023-03-18T16:15:48.411Z,100.00
2023-03-18T16:18:16.197Z,96.43
2023-03-18T16:20:45.539Z,95.39
2023-03-18T16:23:15.136Z,97.81
2023-03-18T16:25:43.597Z,97.92
2023-03-18T16:28:17.918Z,95.75
2023-03-18T16:30:44.905Z,96.51
2023-03-18T16:33:14.499Z,96.79
2023-03-18T16:35:41.286Z,97.62
2023-03-18T16:38:16.603Z,98.32
2023-03-18T16:40:44.467Z,99.03
2023-03-18T16:43:27.300Z,100.00
2023-03-18T16:45:58.301Z,100.00
2023-03-18T16:48:26.970Z,100.00
2023-03-18T16:50:55.905Z,100.00
2023-03-18T16:53:29.697Z,100.00
2023-03-18T16:56:04.300Z,100.00
2023-03-18T16:58:35.052Z,100.00
2023-03-18T17:01:04.669Z,100.00
2023-03-18T17:03:31.596Z,100.00
2023-03-18T17:05:58.344Z,100.00
2023-03-18T17:08:24.823Z,100.00
2023-03-18T17:10:55.397Z,100.00
2023-03-18T17:13:25.895Z,100.00
2023-03-18T17:15:52.916Z,100.00
2023-03-18T17:18:21.736Z,100.00
2023-03-18T17:20:48.965Z,100.00
2023-03-18T17:23:27.054Z,100.00
2023-03-18T17:26:02.672Z,100.00
2023-03-18T17:28:37.336Z,100.00
2023-03-18T17:31:04.481Z,100.00
2023-03-18T17:33:33.842Z,100.00
2023-03-18T17:36:01.873Z,100.00
2023-03-18T17:38:30.597Z,100.00
2023-03-18T17:40:57.853Z,100.00
2023-03-18T17:43:27.664Z,100.00
2023-03-18T17:45:56.541Z,100.00
2023-03-18T17:48:25.745Z,100.00
2023-03-18T17:50:55.718Z,100.00
2023-03-18T17:53:22.092Z,100.00
2023-03-18T17:55:48.767Z,100.00
2023-03-18T17:58:20.286Z,100.00
2023-03-18T18:00:48.126Z,100.00
2023-03-18T18:03:21.960Z,100.00
2023-03-18T18:05:48.676Z,100.00
2023-03-18T18:08:17.610Z,100.00
2023-03-18T18:10:45.313Z,100.00
2023-03-18T18:13:20.660Z,100.00
2023-03-18T18:15:48.445Z,100.00
2023-03-18T18:18:23.215Z,100.00
2023-03-18T18:20:54.745Z,100.00
2023-03-18T18:23:33.333Z,100.00
2023-03-18T18:26:03.142Z,100.00
2023-03-18T18:28:33.011Z,100.00
2023-03-18T18:31:00.971Z,100.00
2023-03-18T18:33:27.637Z,100.00
2023-03-18T18:35:54.417Z,100.00
2023-03-18T18:38:21.036Z,100.00
2023-03-18T18:40:49.100Z,100.00
2023-03-18T18:43:15.654Z,100.00
2023-03-18T18:45:42.241Z,100.00
2023-03-18T18:48:14.723Z,100.00
2023-03-18T18:50:42.609Z,100.00
2023-03-18T18:53:21.463Z,100.00
2023-03-18T18:55:49.298Z,100.00
2023-03-18T18:58:20.165Z,100.00
2023-03-18T19:00:49.338Z,100.00
2023-03-18T19:03:19.184Z,100.00
2023-03-18T19:05:47.071Z,100.00
2023-03-18T19:08:25.045Z,100.00
2023-03-18T19:10:53.425Z,100.00
2023-03-18T19:13:20.699Z,100.00
2023-03-18T19:15:48.594Z,100.00
2023-03-18T19:18:21.078Z,100.00
2023-03-18T19:20:48.441Z,100.00
2023-03-18T19:23:16.761Z,100.00
2023-03-18T19:25:43.938Z,100.00
2023-03-18T19:28:20.912Z,100.00
2023-03-18T19:30:47.965Z,100.00
2023-03-18T19:33:16.508Z,100.00
2023-03-18T19:35:43.867Z,100.00
2023-03-18T19:38:21.421Z,100.00
2023-03-18T19:40:49.565Z,100.00
2023-03-18T19:43:18.325Z,100.00
2023-03-18T19:45:46.837Z,100.00
2023-03-18T19:48:23.886Z,100.00
2023-03-18T19:50:51.258Z,100.00
2023-03-18T19:53:18.641Z,100.00
2023-03-18T19:55:47.264Z,100.00
2023-03-18T19:58:23.111Z,100.00
2023-03-18T20:00:49.666Z,100.00
2023-03-18T20:03:18.440Z,100.00
2023-03-18T20:05:45.574Z,100.00
2023-03-18T20:08:12.256Z,100.00
2023-03-18T20:10:41.111Z,100.00
2023-03-18T20:13:14.603Z,100.00
2023-03-18T20:15:41.197Z,100.00
2023-03-18T20:18:16.916Z,100.00
2023-03-18T20:20:47.201Z,100.00
2023-03-18T20:23:22.317Z,100.00
2023-03-18T20:25:51.258Z,100.00
2023-03-18T20:28:23.290Z,100.00
2023-03-18T20:30:52.110Z,100.00
2023-03-18T20:33:20.024Z,100.00
2023-03-18T20:35:48.208Z,100.00
2023-03-18T20:38:37.608Z,100.00
2023-03-18T20:41:05.688Z,100.00
2023-03-18T20:43:32.585Z,100.00
2023-03-18T20:46:01.127Z,100.00
2023-03-18T20:48:28.279Z,100.00
2023-03-18T20:50:55.263Z,100.00
2023-03-18T20:53:31.617Z,100.00
2023-03-18T20:55:58.178Z,100.00
2023-03-18T20:58:29.022Z,100.00
2023-03-18T21:00:55.654Z,100.00
2023-03-18T21:03:30.908Z,100.00
2023-03-18T21:06:00.150Z,100.00
2023-03-18T21:08:27.731Z,100.00
2023-03-18T21:10:55.153Z,100.00
2023-03-18T21:13:32.730Z,100.00
2023-03-18T21:16:00.675Z,100.00
2023-03-18T21:18:27.699Z,100.00
2023-03-18T21:20:55.351Z,100.00
2023-03-18T21:23:23.391Z,100.00
2023-03-18T21:25:51.148Z,100.00
2023-03-18T21:28:19.742Z,100.00
2023-03-18T21:30:52.130Z,100.00
2023-03-18T21:33:21.730Z,100.00
2023-03-18T21:35:50.242Z,100.00
2023-03-18T21:38:17.275Z,100.00
2023-03-18T21:40:44.043Z,100.00
2023-03-18T21:43:33.613Z,100.00
2023-03-18T21:46:01.784Z,100.00
2023-03-18T21:48:28.986Z,100.00
2023-03-18T21:50:55.671Z,100.00
2023-03-18T21:53:24.286Z,100.00
2023-03-18T21:55:51.929Z,100.00
2023-03-18T21:58:20.857Z,100.00
2023-03-18T22:00:54.908Z,100.00
2023-03-18T22:03:23.544Z,100.00
2023-03-18T22:05:52.611Z,100.00
2023-03-18T22:08:20.574Z,100.00
2023-03-18T22:10:48.959Z,100.00
2023-03-18T22:13:21.366Z,100.00
2023-03-18T22:15:49.598Z,100.00
2023-03-18T22:18:16.613Z,100.00
2023-03-18T22:20:45.365Z,100.00
2023-03-18T22:23:12.849Z,100.00
2023-03-18T22:25:41.172Z,100.00
2023-03-18T22:28:07.913Z,100.00
2023-03-18T22:30:34.846Z,100.00
2023-03-18T22:33:03.706Z,100.00
2023-03-18T22:35:30.402Z,100.00
